sensor_id;sensor_type;location;lat;lon;timestamp;pressure;altitude;pressure_sealevel;temperature;humidity
18167;BME280;9208;42.688;23.404;2023-05-02T00:00:27;95811.97;;;13.47;100.00
18167;BME280;9208;42.688;23.404;2023-05-02T00:02:52;95801.38;;;13.40;100.00
18167;BME280;9208;42.688;23.404;2023-05-02T00:05:18;95814.28;;;13.54;100.00
18167;BME280;9208;42.688;23.404;2023-05-02T00:07:44;95819.47;;;13.47;100.00
18167;BME280;9208;42.688;23.404;2023-05-02T00:10:09;95817.97;;;13.46;100.00
18167;BME280;9208;42.688;23.404;2023-05-02T00:12:35;95814.13;;;13.38;100.00
18167;BME280;9208;42.688;23.404;2023-05-02T00:15:00;95813.28;;;13.26;100.00
18167;BME280;9208;42.688;23.404;2023-05-02T00:17:26;95816.03;;;13.26;100.00
18167;BME280;9208;42.688;23.404;2023-05-02T00:19:51;95816.78;;;13.27;100.00
18167;BME280;9208;42.688;23.404;2023-05-02T00:22:17;95827.53;;;13.25;100.00
18167;BME280;9208;42.688;23.404;2023-05-02T00:24:42;95819.81;;;13.29;100.00
18167;BME280;9208;42.688;23.404;2023-05-02T00:27:08;95818.06;;;13.31;100.00
18167;BME280;9208;42.688;23.404;2023-05-02T00:29:33;95821.38;;;13.35;100.00
18167;BME280;9208;42.688;23.404;2023-05-02T00:31:59;95828.72;;;13.44;100.00
18167;BME280;9208;42.688;23.404;2023-05-02T00:34:28;95825.28;;;13.49;100.00
18167;BME280;9208;42.688;23.404;2023-05-02T00:36:55;95823.72;;;13.48;100.00
18167;BME280;9208;42.688;23.404;2023-05-02T00:39:20;95828.56;;;13.53;100.00
18167;BME280;9208;42.688;23.404;2023-05-02T00:41:46;95831.56;;;13.55;100.00
18167;BME280;9208;42.688;23.404;2023-05-02T00:44:11;95828.09;;;13.60;100.00
18167;BME280;9208;42.688;23.404;2023-05-02T00:46:37;95835.13;;;13.61;100.00
18167;BME280;9208;42.688;23.404;2023-05-02T00:49:02;95840.84;;;13.57;100.00
18167;BME280;9208;42.688;23.404;2023-05-02T00:51:28;95841.25;;;13.45;100.00
18167;BME280;9208;42.688;23.404;2023-05-02T00:53:53;95842.88;;;13.31;100.00
18167;BME280;9208;42.688;23.404;2023-05-02T00:56:20;95841.91;;;13.34;100.00
18167;BME280;9208;42.688;23.404;2023-05-02T00:58:46;95844.53;;;13.23;100.00
18167;BME280;9208;42.688;23.404;2023-05-02T01:12:40;95839.47;;;13.42;100.00
18167;BME280;9208;42.688;23.404;2023-05-02T01:15:10;95839.09;;;13.29;100.00
18167;BME280;9208;42.688;23.404;2023-05-02T01:17:36;95842.06;;;13.25;100.00
18167;BME280;9208;42.688;23.404;2023-05-02T01:20:10;95845.22;;;13.18;100.00
18167;BME280;9208;42.688;23.404;2023-05-02T01:22:38;95819.38;;;13.10;100.00
18167;BME280;9208;42.688;23.404;2023-05-02T01:28:28;95839.78;;;13.24;100.00
18167;BME280;9208;42.688;23.404;2023-05-02T01:30:55;95836.72;;;13.16;100.00
18167;BME280;9208;42.688;23.404;2023-05-02T01:33:23;95837.47;;;13.17;100.00
18167;BME280;9208;42.688;23.404;2023-05-02T01:35:51;95832.38;;;13.10;100.00
18167;BME280;9208;42.688;23.404;2023-05-02T01:38:18;95839.53;;;13.22;100.00
18167;BME280;9208;42.688;23.404;2023-05-02T01:40:46;95828.50;;;13.22;100.00
18167;BME280;9208;42.688;23.404;2023-05-02T01:43:15;95835.13;;;13.10;100.00
18167;BME280;9208;42.688;23.404;2023-05-02T01:45:43;95839.06;;;13.03;100.00
18167;BME280;9208;42.688;23.404;2023-05-02T01:48:10;95845.53;;;13.00;100.00
18167;BME280;9208;42.688;23.404;2023-05-02T01:50:40;95849.28;;;12.97;100.00
18167;BME280;9208;42.688;23.404;2023-05-02T01:53:09;95854.69;;;12.92;100.00
18167;BME280;9208;42.688;23.404;2023-05-02T01:55:38;95849.31;;;12.83;100.00
18167;BME280;9208;42.688;23.404;2023-05-02T01:58:06;95844.44;;;12.72;100.00
18167;BME280;9208;42.688;23.404;2023-05-02T02:00:32;95840.88;;;12.66;100.00
18167;BME280;9208;42.688;23.404;2023-05-02T02:02:58;95845.00;;;12.56;100.00
18167;BME280;9208;42.688;23.404;2023-05-02T02:05:24;95846.34;;;12.46;100.00
18167;BME280;9208;42.688;23.404;2023-05-02T02:07:51;95840.28;;;12.42;100.00
18167;BME280;9208;42.688;23.404;2023-05-02T02:10:17;95841.81;;;12.43;100.00
18167;BME280;9208;42.688;23.404;2023-05-02T02:12:49;95840.84;;;12.46;100.00
18167;BME280;9208;42.688;23.404;2023-05-02T02:18:03;95837.41;;;12.31;100.00
18167;BME280;9208;42.688;23.404;2023-05-02T02:20:29;95829.75;;;12.21;100.00
18167;BME280;9208;42.688;23.404;2023-05-02T02:22:58;95832.25;;;12.19;100.00
18167;BME280;9208;42.688;23.404;2023-05-02T02:25:25;95831.47;;;12.18;100.00
18167;BME280;9208;42.688;23.404;2023-05-02T02:27:51;95840.75;;;12.21;100.00
18167;BME280;9208;42.688;23.404;2023-05-02T02:30:17;95835.94;;;12.16;100.00
18167;BME280;9208;42.688;23.404;2023-05-02T02:32:42;95836.75;;;12.22;100.00
18167;BME280;9208;42.688;23.404;2023-05-02T02:35:09;95840.75;;;12.21;100.00
18167;BME280;9208;42.688;23.404;2023-05-02T02:37:40;95833.31;;;12.27;100.00
18167;BME280;9208;42.688;23.404;2023-05-02T02:40:27;95835.47;;;12.37;100.00
18167;BME280;9208;42.688;23.404;2023-05-02T02:51:47;95833.19;;;12.16;100.00
18167;BME280;9208;42.688;23.404;2023-05-02T02:54:23;95842.66;;;12.15;100.00
18167;BME280;9208;42.688;23.404;2023-05-02T02:56:58;95840.97;;;12.17;100.00
18167;BME280;9208;42.688;23.404;2023-05-02T02:59:29;95847.19;;;12.18;100.00
18167;BME280;9208;42.688;23.404;2023-05-02T03:02:11;95840.41;;;12.13;100.00
18167;BME280;9208;42.688;23.404;2023-05-02T03:04:40;95842.94;;;12.17;100.00
18167;BME280;9208;42.688;23.404;2023-05-02T03:07:09;95857.53;;;12.23;100.00
18167;BME280;9208;42.688;23.404;2023-05-02T03:12:07;95849.28;;;12.23;100.00
18167;BME280;9208;42.688;23.404;2023-05-02T03:14:32;95861.31;;;12.25;100.00
18167;BME280;9208;42.688;23.404;2023-05-02T03:16:58;95873.91;;;12.32;100.00
18167;BME280;9208;42.688;23.404;2023-05-02T03:19:23;95871.50;;;12.39;100.00
18167;BME280;9208;42.688;23.404;2023-05-02T03:21:49;95867.25;;;12.38;100.00
18167;BME280;9208;42.688;23.404;2023-05-02T03:24:14;95883.13;;;12.49;100.00
18167;BME280;9208;42.688;23.404;2023-05-02T03:26:40;95880.81;;;12.62;100.00
18167;BME280;9208;42.688;23.404;2023-05-02T03:29:06;95881.34;;;12.66;100.00
18167;BME280;9208;42.688;23.404;2023-05-02T03:31:32;95890.72;;;12.74;100.00
18167;BME280;9208;42.688;23.404;2023-05-02T03:33:57;95889.06;;;12.82;100.00
18167;BME280;9208;42.688;23.404;2023-05-02T03:36:23;95895.81;;;12.81;100.00
18167;BME280;9208;42.688;23.404;2023-05-02T03:38:48;95891.81;;;12.82;100.00
18167;BME280;9208;42.688;23.404;2023-05-02T03:41:13;95887.50;;;12.75;100.00
18167;BME280;9208;42.688;23.404;2023-05-02T03:43:39;95888.44;;;12.72;100.00
18167;BME280;9208;42.688;23.404;2023-05-02T03:46:08;95887.41;;;12.70;100.00
18167;BME280;9208;42.688;23.404;2023-05-02T03:48:35;95890.44;;;12.72;100.00
18167;BME280;9208;42.688;23.404;2023-05-02T03:51:02;95899.44;;;12.72;100.00
18167;BME280;9208;42.688;23.404;2023-05-02T03:53:29;95888.91;;;12.71;100.00
18167;BME280;9208;42.688;23.404;2023-05-02T03:55:55;95897.53;;;12.78;100.00
18167;BME280;9208;42.688;23.404;2023-05-02T03:58:21;95890.03;;;12.79;100.00
18167;BME280;9208;42.688;23.404;2023-05-02T04:00:47;95904.09;;;12.81;100.00
18167;BME280;9208;42.688;23.404;2023-05-02T04:03:13;95889.06;;;12.82;100.00
18167;BME280;9208;42.688;23.404;2023-05-02T04:05:38;95900.34;;;12.84;100.00
18167;BME280;9208;42.688;23.404;2023-05-02T04:08:04;95896.16;;;12.68;100.00
18167;BME280;9208;42.688;23.404;2023-05-02T04:10:30;95891.47;;;12.54;100.00
18167;BME280;9208;42.688;23.404;2023-05-02T04:12:55;95895.66;;;12.50;100.00
18167;BME280;9208;42.688;23.404;2023-05-02T04:15:21;95901.09;;;12.64;100.00
18167;BME280;9208;42.688;23.404;2023-05-02T04:17:46;95901.94;;;12.70;100.00
18167;BME280;9208;42.688;23.404;2023-05-02T04:20:12;95906.28;;;12.77;100.00
18167;BME280;9208;42.688;23.404;2023-05-02T04:22:38;95906.13;;;12.86;100.00
18167;BME280;9208;42.688;23.404;2023-05-02T04:25:06;95901.09;;;12.99;100.00
18167;BME280;9208;42.688;23.404;2023-05-02T04:27:32;95904.56;;;12.99;100.00
18167;BME280;9208;42.688;23.404;2023-05-02T04:29:57;95899.16;;;13.05;100.00
18167;BME280;9208;42.688;23.404;2023-05-02T04:32:23;95888.34;;;13.01;100.00
18167;BME280;9208;42.688;23.404;2023-05-02T04:34:49;95902.00;;;13.16;100.00
18167;BME280;9208;42.688;23.404;2023-05-02T04:37:15;95901.28;;;13.15;100.00
18167;BME280;9208;42.688;23.404;2023-05-02T04:39:40;95902.78;;;13.16;100.00
18167;BME280;9208;42.688;23.404;2023-05-02T04:42:05;95904.84;;;13.21;100.00
18167;BME280;9208;42.688;23.404;2023-05-02T04:44:31;95895.47;;;13.13;100.00
18167;BME280;9208;42.688;23.404;2023-05-02T04:46:56;95906.66;;;13.30;100.00
18167;BME280;9208;42.688;23.404;2023-05-02T04:49:22;95909.81;;;13.43;100.00
18167;BME280;9208;42.688;23.404;2023-05-02T04:51:47;95917.94;;;13.52;100.00
18167;BME280;9208;42.688;23.404;2023-05-02T04:54:13;95912.75;;;13.59;100.00
18167;BME280;9208;42.688;23.404;2023-05-02T04:56:39;95902.00;;;13.61;100.00
18167;BME280;9208;42.688;23.404;2023-05-02T04:59:04;95909.78;;;13.63;100.00
18167;BME280;9208;42.688;23.404;2023-05-02T05:01:30;95902.56;;;13.65;100.00
18167;BME280;9208;42.688;23.404;2023-05-02T05:03:55;95904.13;;;13.72;100.00
18167;BME280;9208;42.688;23.404;2023-05-02T05:06:21;95912.22;;;13.81;100.00
18167;BME280;9208;42.688;23.404;2023-05-02T05:08:47;95913.50;;;13.85;100.00
18167;BME280;9208;42.688;23.404;2023-05-02T05:11:13;95911.81;;;13.93;100.00
18167;BME280;9208;42.688;23.404;2023-05-02T05:13:40;95910.13;;;14.01;100.00
18167;BME280;9208;42.688;23.404;2023-05-02T05:16:06;95912.41;;;14.03;100.00
18167;BME280;9208;42.688;23.404;2023-05-02T05:18:32;95923.63;;;13.99;100.00
18167;BME280;9208;42.688;23.404;2023-05-02T05:21:05;95912.72;;;14.10;100.00
18167;BME280;9208;42.688;23.404;2023-05-02T05:23:31;95917.78;;;14.17;100.00
18167;BME280;9208;42.688;23.404;2023-05-02T05:25:57;95917.59;;;14.21;100.00
18167;BME280;9208;42.688;23.404;2023-05-02T05:28:23;95916.41;;;14.27;100.00
18167;BME280;9208;42.688;23.404;2023-05-02T05:30:48;95916.16;;;14.31;100.00
18167;BME280;9208;42.688;23.404;2023-05-02T05:33:15;95913.97;;;14.40;100.00
18167;BME280;9208;42.688;23.404;2023-05-02T05:35:40;95911.00;;;14.44;98.78
18167;BME280;9208;42.688;23.404;2023-05-02T05:38:06;95922.84;;;14.55;97.68
18167;BME280;9208;42.688;23.404;2023-05-02T05:40:31;95920.63;;;14.59;96.29
18167;BME280;9208;42.688;23.404;2023-05-02T05:42:56;95921.88;;;14.64;95.03
18167;BME280;9208;42.688;23.404;2023-05-02T05:45:22;95924.19;;;14.71;94.05
18167;BME280;9208;42.688;23.404;2023-05-02T05:47:47;95919.94;;;14.70;93.53
18167;BME280;9208;42.688;23.404;2023-05-02T05:50:13;95923.22;;;14.79;92.74
18167;BME280;9208;42.688;23.404;2023-05-02T05:52:38;95921.47;;;14.76;90.89
18167;BME280;9208;42.688;23.404;2023-05-02T05:55:05;95933.34;;;14.88;90.00
18167;BME280;9208;42.688;23.404;2023-05-02T05:57:31;95929.34;;;14.94;89.23
18167;BME280;9208;42.688;23.404;2023-05-02T05:59:56;95938.13;;;14.98;88.91
18167;BME280;9208;42.688;23.404;2023-05-02T06:02:22;95929.16;;;15.09;89.46
18167;BME280;9208;42.688;23.404;2023-05-02T06:04:47;95952.16;;;15.42;87.36
18167;BME280;9208;42.688;23.404;2023-05-02T06:07:13;95956.75;;;15.62;85.98
18167;BME280;9208;42.688;23.404;2023-05-02T06:09:38;95973.88;;;15.77;83.65
18167;BME280;9208;42.688;23.404;2023-05-02T06:12:04;95984.47;;;15.95;82.22
18167;BME280;9208;42.688;23.404;2023-05-02T06:14:29;95979.22;;;16.08;81.77
18167;BME280;9208;42.688;23.404;2023-05-02T06:16:57;95989.81;;;16.15;80.14
18167;BME280;9208;42.688;23.404;2023-05-02T06:19:23;96003.41;;;16.24;79.07
18167;BME280;9208;42.688;23.404;2023-05-02T06:21:48;96001.13;;;16.28;78.45
18167;BME280;9208;42.688;23.404;2023-05-02T06:24:14;96002.88;;;16.31;77.99
18167;BME280;9208;42.688;23.404;2023-05-02T06:26:39;95996.09;;;16.37;77.62
18167;BME280;9208;42.688;23.404;2023-05-02T06:29:05;95992.59;;;16.42;77.18
18167;BME280;9208;42.688;23.404;2023-05-02T06:31:30;96003.97;;;16.50;76.41
18167;BME280;9208;42.688;23.404;2023-05-02T06:33:56;96001.44;;;16.52;75.88
18167;BME280;9208;42.688;23.404;2023-05-02T06:36:21;95999.41;;;16.58;75.67
18167;BME280;9208;42.688;23.404;2023-05-02T06:38:47;96008.97;;;16.68;74.82
18167;BME280;9208;42.688;23.404;2023-05-02T06:41:13;96008.47;;;16.75;74.55
18167;BME280;9208;42.688;23.404;2023-05-02T06:43:41;96008.69;;;16.82;74.43
18167;BME280;9208;42.688;23.404;2023-05-02T06:46:07;96013.75;;;16.89;73.72
18167;BME280;9208;42.688;23.404;2023-05-02T06:48:36;96018.00;;;16.85;73.11
18167;BME280;9208;42.688;23.404;2023-05-02T06:51:01;96020.28;;;16.97;73.30
18167;BME280;9208;42.688;23.404;2023-05-02T06:53:28;96015.97;;;17.02;73.11
18167;BME280;9208;42.688;23.404;2023-05-02T06:55:53;96019.25;;;17.11;72.65
18167;BME280;9208;42.688;23.404;2023-05-02T06:58:19;96026.28;;;17.18;72.39
18167;BME280;9208;42.688;23.404;2023-05-02T07:00:44;96016.22;;;17.09;72.21
18167;BME280;9208;42.688;23.404;2023-05-02T07:03:10;96020.97;;;17.20;72.35
18167;BME280;9208;42.688;23.404;2023-05-02T07:05:35;96029.06;;;17.23;71.79
18167;BME280;9208;42.688;23.404;2023-05-02T07:08:01;96028.00;;;17.32;71.27
18167;BME280;9208;42.688;23.404;2023-05-02T07:10:26;96032.06;;;17.31;70.95
18167;BME280;9208;42.688;23.404;2023-05-02T07:12:51;96013.91;;;17.30;71.10
18167;BME280;9208;42.688;23.404;2023-05-02T07:15:17;96020.19;;;17.36;71.10
18167;BME280;9208;42.688;23.404;2023-05-02T07:17:42;96019.69;;;17.37;71.59
18167;BME280;9208;42.688;23.404;2023-05-02T07:20:09;96026.50;;;17.42;71.19
18167;BME280;9208;42.688;23.404;2023-05-02T07:22:35;96025.94;;;17.54;70.97
18167;BME280;9208;42.688;23.404;2023-05-02T07:25:01;96028.94;;;17.67;70.45
18167;BME280;9208;42.688;23.404;2023-05-02T07:27:27;96040.50;;;17.77;69.91
18167;BME280;9208;42.688;23.404;2023-05-02T07:29:52;96032.16;;;17.82;69.49
18167;BME280;9208;42.688;23.404;2023-05-02T07:32:19;96035.16;;;17.84;69.72
18167;BME280;9208;42.688;23.404;2023-05-02T07:34:46;96046.25;;;17.90;69.52
18167;BME280;9208;42.688;23.404;2023-05-02T07:37:11;96046.72;;;17.94;68.95
18167;BME280;9208;42.688;23.404;2023-05-02T07:39:41;96036.91;;;17.93;68.69
18167;BME280;9208;42.688;23.404;2023-05-02T07:42:06;96049.41;;;18.16;68.12
18167;BME280;9208;42.688;23.404;2023-05-02T07:44:32;96052.13;;;18.21;68.15
18167;BME280;9208;42.688;23.404;2023-05-02T07:47:00;96069.19;;;18.42;66.91
18167;BME280;9208;42.688;23.404;2023-05-02T07:49:26;96086.31;;;18.46;66.08
18167;BME280;9208;42.688;23.404;2023-05-02T07:51:51;96090.84;;;18.49;65.89
18167;BME280;9208;42.688;23.404;2023-05-02T07:54:21;96083.59;;;18.41;65.20
18167;BME280;9208;42.688;23.404;2023-05-02T07:56:46;96093.09;;;18.56;65.01
18167;BME280;9208;42.688;23.404;2023-05-02T07:59:13;96090.03;;;18.60;65.22
18167;BME280;9208;42.688;23.404;2023-05-02T08:01:39;96080.22;;;18.53;65.37
18167;BME280;9208;42.688;23.404;2023-05-02T08:04:06;96085.28;;;18.55;64.93
18167;BME280;9208;42.688;23.404;2023-05-02T08:06:31;96079.16;;;18.62;65.04
18167;BME280;9208;42.688;23.404;2023-05-02T08:08:59;96080.34;;;18.72;64.61
18167;BME280;9208;42.688;23.404;2023-05-02T08:11:25;96094.88;;;18.89;64.85
18167;BME280;9208;42.688;23.404;2023-05-02T08:13:51;96103.13;;;19.00;63.75
18167;BME280;9208;42.688;23.404;2023-05-02T08:16:17;96110.16;;;19.06;63.44
18167;BME280;9208;42.688;23.404;2023-05-02T08:18:43;96105.81;;;19.11;63.00
18167;BME280;9208;42.688;23.404;2023-05-02T08:21:09;96110.56;;;19.16;62.91
18167;BME280;9208;42.688;23.404;2023-05-02T08:23:34;96112.59;;;19.15;62.23
18167;BME280;9208;42.688;23.404;2023-05-02T08:26:02;96107.28;;;19.17;62.73
18167;BME280;9208;42.688;23.404;2023-05-02T08:28:27;96103.16;;;19.29;62.49
18167;BME280;9208;42.688;23.404;2023-05-02T08:30:55;96108.34;;;19.44;61.90
18167;BME280;9208;42.688;23.404;2023-05-02T08:33:21;96114.69;;;19.39;60.99
18167;BME280;9208;42.688;23.404;2023-05-02T08:35:47;96128.78;;;19.46;61.18
18167;BME280;9208;42.688;23.404;2023-05-02T08:38:12;96128.72;;;19.52;60.92
18167;BME280;9208;42.688;23.404;2023-05-02T08:40:38;96127.00;;;19.49;60.86
18167;BME280;9208;42.688;23.404;2023-05-02T08:43:04;96126.06;;;19.65;60.86
18167;BME280;9208;42.688;23.404;2023-05-02T08:45:41;96139.31;;;19.77;60.33
18167;BME280;9208;42.688;23.404;2023-05-02T08:48:09;96134.84;;;19.74;60.22
18167;BME280;9208;42.688;23.404;2023-05-02T08:50:40;96129.72;;;19.78;60.14
18167;BME280;9208;42.688;23.404;2023-05-02T08:53:09;96145.47;;;19.94;58.85
18167;BME280;9208;42.688;23.404;2023-05-02T08:55:39;96147.63;;;20.07;58.51
18167;BME280;9208;42.688;23.404;2023-05-02T08:58:06;96146.09;;;20.11;58.65
18167;BME280;9208;42.688;23.404;2023-05-02T09:00:38;96139.56;;;20.03;58.47
18167;BME280;9208;42.688;23.404;2023-05-02T09:05:38;96131.91;;;19.85;58.94
18167;BME280;9208;42.688;23.404;2023-05-02T09:08:04;96131.69;;;19.83;59.01
18167;BME280;9208;42.688;23.404;2023-05-02T09:10:30;96120.56;;;19.83;58.86
18167;BME280;9208;42.688;23.404;2023-05-02T09:15:59;96125.84;;;19.87;58.92
18167;BME280;9208;42.688;23.404;2023-05-02T09:18:45;96129.38;;;19.87;57.75
18167;BME280;9208;42.688;23.404;2023-05-02T09:21:13;96131.41;;;19.87;57.58
18167;BME280;9208;42.688;23.404;2023-05-02T09:23:43;96124.03;;;19.89;58.22
18167;BME280;9208;42.688;23.404;2023-05-02T09:26:21;96130.41;;;20.08;57.29
18167;BME280;9208;42.688;23.404;2023-05-02T09:28:51;96137.22;;;20.13;57.41
18167;BME280;9208;42.688;23.404;2023-05-02T09:31:21;96106.63;;;20.07;57.33
18167;BME280;9208;42.688;23.404;2023-05-02T09:33:48;96129.47;;;20.24;56.61
18167;BME280;9208;42.688;23.404;2023-05-02T09:36:15;96129.00;;;20.20;57.39
18167;BME280;9208;42.688;23.404;2023-05-02T09:38:42;96135.09;;;20.19;56.95
18167;BME280;9208;42.688;23.404;2023-05-02T09:41:09;96131.78;;;20.20;56.18
18167;BME280;9208;42.688;23.404;2023-05-02T09:43:35;96137.38;;;20.20;56.20
18167;BME280;9208;42.688;23.404;2023-05-02T09:46:06;96121.44;;;20.21;56.68
18167;BME280;9208;42.688;23.404;2023-05-02T09:51:18;96119.53;;;20.29;56.58
18167;BME280;9208;42.688;23.404;2023-05-02T09:53:44;96130.31;;;20.38;56.08
18167;BME280;9208;42.688;23.404;2023-05-02T09:56:09;96128.50;;;20.40;55.40
18167;BME280;9208;42.688;23.404;2023-05-02T09:58:35;96126.34;;;20.52;54.99
18167;BME280;9208;42.688;23.404;2023-05-02T10:01:01;96138.53;;;20.49;53.25
18167;BME280;9208;42.688;23.404;2023-05-02T10:03:27;96103.72;;;20.74;56.54
18167;BME280;9208;42.688;23.404;2023-05-02T10:05:54;96119.53;;;21.03;55.08
18167;BME280;9208;42.688;23.404;2023-05-02T10:08:23;96139.38;;;20.99;52.34
18167;BME280;9208;42.688;23.404;2023-05-02T10:10:53;96134.75;;;21.02;53.71
18167;BME280;9208;42.688;23.404;2023-05-02T10:13:20;96133.84;;;21.12;53.81
18167;BME280;9208;42.688;23.404;2023-05-02T10:16:02;96138.13;;;21.13;52.89
18167;BME280;9208;42.688;23.404;2023-05-02T10:18:37;96135.03;;;21.17;52.57
18167;BME280;9208;42.688;23.404;2023-05-02T10:21:08;96138.78;;;21.19;52.33
18167;BME280;9208;42.688;23.404;2023-05-02T10:23:34;96138.78;;;21.19;52.31
18167;BME280;9208;42.688;23.404;2023-05-02T10:26:00;96132.28;;;21.30;52.76
18167;BME280;9208;42.688;23.404;2023-05-02T10:28:26;96126.38;;;21.33;53.02
18167;BME280;9208;42.688;23.404;2023-05-02T10:30:53;96121.56;;;21.34;51.87
18167;BME280;9208;42.688;23.404;2023-05-02T10:33:23;96109.31;;;21.37;53.14
18167;BME280;9208;42.688;23.404;2023-05-02T10:35:49;96114.91;;;21.37;52.20
18167;BME280;9208;42.688;23.404;2023-05-02T10:38:21;96112.22;;;21.31;51.52
18167;BME280;9208;42.688;23.404;2023-05-02T10:40:53;96118.25;;;21.35;51.86
18167;BME280;9208;42.688;23.404;2023-05-02T10:43:24;96127.72;;;21.58;51.11
18167;BME280;9208;42.688;23.404;2023-05-02T10:45:52;96120.09;;;21.59;51.14
18167;BME280;9208;42.688;23.404;2023-05-02T10:48:20;96122.34;;;21.60;51.06
18167;BME280;9208;42.688;23.404;2023-05-02T10:50:54;96103.56;;;21.48;51.74
18167;BME280;9208;42.688;23.404;2023-05-02T10:53:33;96121.72;;;21.67;50.94
18167;BME280;9208;42.688;23.404;2023-05-02T10:58:43;96118.06;;;21.59;50.85
18167;BME280;9208;42.688;23.404;2023-05-02T11:03:59;96111.16;;;21.79;50.11
18167;BME280;9208;42.688;23.404;2023-05-02T11:06:27;96097.28;;;21.73;51.11
18167;BME280;9208;42.688;23.404;2023-05-02T11:11:43;96114.91;;;21.81;49.62
18167;BME280;9208;42.688;23.404;2023-05-02T11:14:10;96121.97;;;21.82;49.79
18167;BME280;9208;42.688;23.404;2023-05-02T11:24:49;96098.25;;;22.02;49.97
18167;BME280;9208;42.688;23.404;2023-05-02T11:32:21;96100.41;;;22.09;49.47
18167;BME280;9208;42.688;23.404;2023-05-02T11:34:47;96092.13;;;22.03;49.28
18167;BME280;9208;42.688;23.404;2023-05-02T11:37:18;96083.66;;;22.09;50.38
18167;BME280;9208;42.688;23.404;2023-05-02T11:39:43;96081.16;;;22.18;49.91
18167;BME280;9208;42.688;23.404;2023-05-02T11:42:32;96083.84;;;22.24;49.75
18167;BME280;9208;42.688;23.404;2023-05-02T11:44:59;96082.00;;;22.26;49.56
18167;BME280;9208;42.688;23.404;2023-05-02T11:47:26;96083.94;;;22.31;48.96
18167;BME280;9208;42.688;23.404;2023-05-02T11:49:54;96081.03;;;22.37;48.76
18167;BME280;9208;42.688;23.404;2023-05-02T11:52:21;96084.03;;;22.26;48.50
18167;BME280;9208;42.688;23.404;2023-05-02T11:54:48;96068.47;;;22.30;48.94
18167;BME280;9208;42.688;23.404;2023-05-02T11:57:14;96075.66;;;22.26;48.50
18167;BME280;9208;42.688;23.404;2023-05-02T11:59:52;96059.44;;;22.24;49.92
18167;BME280;9208;42.688;23.404;2023-05-02T12:02:19;96048.41;;;22.19;49.43
18167;BME280;9208;42.688;23.404;2023-05-02T12:04:45;96058.78;;;22.31;49.16
18167;BME280;9208;42.688;23.404;2023-05-02T12:07:11;96061.06;;;22.33;48.49
18167;BME280;9208;42.688;23.404;2023-05-02T12:09:52;96055.66;;;22.35;48.49
18167;BME280;9208;42.688;23.404;2023-05-02T12:12:21;96051.03;;;22.37;48.19
18167;BME280;9208;42.688;23.404;2023-05-02T12:14:47;96059.09;;;22.41;47.63
18167;BME280;9208;42.688;23.404;2023-05-02T12:17:12;96053.41;;;22.46;47.28
18167;BME280;9208;42.688;23.404;2023-05-02T12:19:38;96065.97;;;22.53;46.15
18167;BME280;9208;42.688;23.404;2023-05-02T12:22:04;96082.53;;;22.51;44.98
18167;BME280;9208;42.688;23.404;2023-05-02T12:24:30;96069.50;;;22.53;45.20
18167;BME280;9208;42.688;23.404;2023-05-02T12:27:22;96079.38;;;22.54;45.03
18167;BME280;9208;42.688;23.404;2023-05-02T12:29:47;96069.28;;;22.51;44.56
18167;BME280;9208;42.688;23.404;2023-05-02T12:32:14;96072.19;;;22.59;44.72
18167;BME280;9208;42.688;23.404;2023-05-02T12:34:41;96067.34;;;22.59;44.08
18167;BME280;9208;42.688;23.404;2023-05-02T12:37:07;96058.50;;;22.68;43.86
18167;BME280;9208;42.688;23.404;2023-05-02T12:39:37;96057.41;;;22.71;43.51
18167;BME280;9208;42.688;23.404;2023-05-02T12:42:16;96064.97;;;22.63;43.05
18167;BME280;9208;42.688;23.404;2023-05-02T12:44:47;96054.84;;;22.60;42.61
18167;BME280;9208;42.688;23.404;2023-05-02T12:47:14;96055.09;;;22.62;42.62
18167;BME280;9208;42.688;23.404;2023-05-02T12:49:54;96046.41;;;22.53;42.24
18167;BME280;9208;42.688;23.404;2023-05-02T12:52:51;96053.16;;;22.57;41.75
18167;BME280;9208;42.688;23.404;2023-05-02T12:55:24;96053.78;;;22.63;41.14
18167;BME280;9208;42.688;23.404;2023-05-02T13:10:51;96040.50;;;22.43;41.44
18167;BME280;9208;42.688;23.404;2023-05-02T13:13:17;96037.06;;;22.50;41.03
18167;BME280;9208;42.688;23.404;2023-05-02T13:15:42;96050.44;;;22.65;40.87
18167;BME280;9208;42.688;23.404;2023-05-02T13:18:08;96050.75;;;22.74;40.86
18167;BME280;9208;42.688;23.404;2023-05-02T13:20:33;96052.97;;;22.76;40.35
18167;BME280;9208;42.688;23.404;2023-05-02T13:22:58;96063.06;;;22.79;40.24
18167;BME280;9208;42.688;23.404;2023-05-02T13:25:24;96059.13;;;22.74;40.29
18167;BME280;9208;42.688;23.404;2023-05-02T13:27:50;96047.94;;;22.74;40.48
18167;BME280;9208;42.688;23.404;2023-05-02T13:30:16;96052.78;;;22.74;40.25
18167;BME280;9208;42.688;23.404;2023-05-02T13:32:41;96053.19;;;22.78;39.79
18167;BME280;9208;42.688;23.404;2023-05-02T13:35:10;96050.09;;;22.68;39.55
18167;BME280;9208;42.688;23.404;2023-05-02T13:37:38;96045.69;;;22.73;40.40
18167;BME280;9208;42.688;23.404;2023-05-02T13:40:05;96051.69;;;22.77;39.72
18167;BME280;9208;42.688;23.404;2023-05-02T13:42:30;96052.84;;;22.81;39.28
18167;BME280;9208;42.688;23.404;2023-05-02T13:44:56;96053.59;;;22.82;39.13
18167;BME280;9208;42.688;23.404;2023-05-02T13:47:21;96061.94;;;22.95;38.56
18167;BME280;9208;42.688;23.404;2023-05-02T13:49:47;96054.81;;;22.94;39.13
18167;BME280;9208;42.688;23.404;2023-05-02T13:52:12;96058.03;;;22.98;38.68
18167;BME280;9208;42.688;23.404;2023-05-02T13:54:38;96056.13;;;22.93;38.70
18167;BME280;9208;42.688;23.404;2023-05-02T13:57:03;96056.34;;;22.95;38.46
18167;BME280;9208;42.688;23.404;2023-05-02T13:59:29;96051.06;;;22.91;38.34
18167;BME280;9208;42.688;23.404;2023-05-02T14:01:55;96057.97;;;22.90;38.31
18167;BME280;9208;42.688;23.404;2023-05-02T14:04:20;96060.09;;;22.97;37.83
18167;BME280;9208;42.688;23.404;2023-05-02T14:06:46;96071.28;;;22.97;37.43